Latest Weather Observations for Mount Isa

IDQ60801

Issued at 10:02 am EST Wednesday 18 October 2017 (issued every 30 minutes, with the page automatically refreshed every 10 minutes)

About weather observations | Map of weather stations | Latest weather observations for QLD | Other Formats
Station Details ID: 029127 Name: MOUNT ISA AERO Lat: -20.68 Lon: 139.49 Height: 340.3 m
Data from the previous 72 hours. | See also: Recent months at Mount Isa
Date/Time
EST
Temp
°C
App
Temp
°C
Dew
Point
°C
Rel
Hum
%
Delta-T
°C
Wind Press
QNH
hPa
Press
MSL
hPa
Rain since
9am
mm
Dir  Spd
km/h
Gust
km/h
Spd
kts
Gust
kts
18/10:00am 29.7 27.0 13.5 37 9.8 NNE 20 28 11 15 1013.7 1011.7 0.0
18/09:30am 28.3 26.0 13.0 39 9.1 NE 17 24 9 13 1013.8 1011.8 0.0
18/09:00am 27.9 26.6 15.9 48 7.5 NE 17 22 9 12 1014.0 1012.0 0.0
18/08:30am 26.3 25.2 14.4 48 7.2 NE 13 19 7 10 1013.9 1011.9 0.0
18/08:00am 25.5 23.3 13.4 47 7.2 ENE 17 22 9 12 1013.7 1011.7 0.0
18/07:30am 24.5 22.7 12.1 46 7.2 E 13 19 7 10 1013.3 1011.3 0.0
18/07:00am 22.6 22.1 12.8 54 5.7 E 7 11 4 6 1013.0 1010.9 0.0
18/06:57am 22.2 21.7 12.7 55 5.5 E 7 9 4 5 1013.0 1010.9 0.0
18/06:30am 17.0 15.9 10.6 66 3.5 NE 7 9 4 5 1012.5 1010.4 0.0
18/06:00am 17.3 15.7 10.2 63 3.8 E 9 9 5 5 1012.1 1010.0 0.0
18/05:30am 17.7 15.1 9.3 58 4.5 ENE 13 15 7 8 1011.9 1009.8 0.0
18/05:00am 20.0 18.2 9.3 50 5.8 NE 9 9 5 5 1011.3 1009.3 0.0
18/04:30am 21.5 19.0 9.7 47 6.5 E 13 15 7 8 1011.0 1009.0 0.0
18/04:00am 21.9 20.1 9.4 45 6.8 ESE 9 13 5 7 1010.7 1008.7 0.0
18/03:30am 23.3 21.2 9.7 42 7.5 E 11 11 6 6 1010.6 1008.6 0.0
18/03:00am 23.7 22.2 9.3 40 7.9 E 7 9 4 5 1010.5 1008.5 0.0
18/02:30am 24.3 21.9 8.7 37 8.5 ESE 11 15 6 8 1010.6 1008.6 0.0
18/02:00am 23.8 21.4 7.0 34 8.9 ESE 9 13 5 7 1010.9 1008.9 0.0
18/01:30am 21.6 19.1 6.7 38 7.7 SSE 9 13 5 7 1011.1 1009.1 0.0
18/01:00am 21.9 19.6 5.8 35 8.2 ESE 7 7 4 4 1011.2 1009.2 0.0
18/12:30am 21.7 19.3 6.8 38 7.7 S 9 11 5 6 1011.2 1009.2 0.0
18/12:00am 21.7 19.6 6.8 38 7.7 NE 7 9 4 5 1011.4 1009.4 0.0
 
Date/Time
EST
Temp
°C
App
Temp
°C
Dew
Point
°C
Rel
Hum
%
Delta-T
°C
Wind Press
QNH
hPa
Press
MSL
hPa
Rain since
9am
mm
Dir  Spd
km/h
Gust
km/h
Spd
kts
Gust
kts
17/11:30pm 23.9 23.0 6.2 32 9.2 CALM 0 7 0 4 1011.6 1009.5 0.0
17/11:00pm 26.4 23.5 4.8 25 11.1 S 9 11 5 6 1011.7 1009.6 0.0
17/10:30pm 24.8 22.8 7.0 32 9.4 S 7 7 4 4 1011.6 1009.5 0.0
17/10:00pm 21.4 19.8 8.0 42 7.1 S 6 7 3 4 1011.2 1009.2 0.0
17/09:30pm 21.3 19.4 7.5 41 7.2 S 7 9 4 5 1010.9 1008.9 0.0
17/09:00pm 22.1 20.0 6.7 37 8.0 S 7 11 4 6 1010.6 1008.6 0.0
17/08:30pm 23.6 21.4 6.4 33 9.0 S 7 7 4 4 1010.2 1008.1 0.0
17/08:00pm 25.2 23.2 6.4 30 9.9 SSE 6 7 3 4 1009.8 1007.7 0.0
17/07:30pm 25.2 24.6 7.3 32 9.6 CALM 0 0 0 0 1009.4 1007.3 0.0
17/07:00pm 27.9 25.8 6.6 26 11.4 ESE 7 9 4 5 1009.0 1006.9 0.0
17/06:30pm 30.4 28.1 5.6 21 13.3 ESE 7 9 4 5 1008.6 1006.5 0.0
17/06:00pm 31.4 27.8 5.0 19 14.1 SE 13 15 7 8 1008.3 1006.3 0.0
17/05:30pm 32.7 28.4 5.3 18 14.8 SE 17 26 9 14 1008.1 1006.1 0.0
17/05:00pm 33.3 29.7 6.6 19 14.8 SE 15 22 8 12 1008.1 1006.1 0.0
17/04:30pm 33.3 29.7 6.6 19 14.7 S 15 22 8 12 1008.0 1006.0 0.0
17/04:00pm 33.3 29.4 7.3 20 14.5 E 17 30 9 16 1007.9 1005.9 0.0
17/03:30pm 32.7 28.1 8.2 22 13.8 E 22 33 12 18 1008.1 1006.1 0.0
17/03:00pm 32.1 27.8 7.7 22 13.7 SSE 20 32 11 17 1008.4 1006.4 0.0
17/02:30pm 31.6 27.5 8.0 23 13.2 SSE 19 41 10 22 1009.0 1006.9 0.0
17/02:00pm 33.3 29.1 5.8 18 15.0 SSE 17 32 9 17 1009.2 1007.1 0.0
17/01:30pm 33.5 31.4 8.2 21 14.3 W 9 19 5 10 1009.7 1007.6 0.0
17/01:00pm 31.0 27.8 6.8 22 13.3 ESE 13 22 7 12 1010.4 1008.3 0.0
17/12:30pm 32.2 28.7 7.1 21 13.9 ENE 15 28 8 15 1011.0 1009.0 0.0
17/12:00pm 31.9 29.4 8.2 23 13.3 NE 11 19 6 10 1011.4 1009.4 0.0
17/11:30am 32.2 29.1 10.3 26 12.7 NE 17 28 9 15 1011.9 1009.8 0.0
17/11:00am 31.6 29.2 11.4 29 11.9 NE 15 22 8 12 1012.4 1010.3 0.0
17/10:30am 30.3 27.6 11.8 32 10.9 ENE 17 26 9 14 1012.9 1010.8 0.0
17/10:00am 28.9 25.6 11.5 34 10.2 ENE 20 28 11 15 1013.2 1011.2 0.0
17/09:30am 27.8 25.3 12.2 38 9.2 E 17 28 9 15 1013.3 1011.3 0.0
17/09:00am 27.2 24.8 12.8 41 8.5 E 17 26 9 14 1013.3 1011.3 0.0
17/08:30am 26.3 23.5 12.7 43 8.0 ENE 19 28 10 15 1013.1 1011.1 0.0
17/08:00am 25.1 22.6 12.3 45 7.5 E 17 26 9 14 1012.9 1010.8 0.0
17/07:30am 24.6 23.3 12.5 46 7.1 ESE 11 15 6 8 1012.5 1010.4 0.0
17/07:00am 21.0 21.8 12.4 58 4.9 CALM 0 0 0 0 1012.2 1010.1 0.0
17/06:30am 18.1 18.8 12.1 68 3.4 CALM 0 0 0 0 1011.9 1009.8 0.0
17/06:00am 18.1 17.8 11.4 65 3.7 SSE 4 7 2 4 1011.6 1009.5 0.0
17/05:30am 19.2 19.2 11.3 60 4.4 NE 2 6 1 3 1011.3 1009.3 0.0
17/05:00am 21.0 20.1 10.8 52 5.7 ENE 6 7 3 4 1010.9 1008.9 0.0
17/04:30am 22.6 21.0 11.4 49 6.4 E 11 15 6 8 1010.6 1008.6 0.0
17/04:00am 21.7 20.7 12.3 55 5.4 ENE 9 13 5 7 1010.5 1008.5 0.0
17/03:30am 22.7 20.5 12.0 50 6.1 ENE 15 19 8 10 1010.5 1008.5 0.0
17/03:00am 23.7 21.5 12.0 48 6.7 ENE 15 22 8 12 1010.6 1008.6 0.0
17/02:30am 24.1 21.1 11.8 46 7.1 ENE 19 30 10 16 1010.7 1008.7 0.0
17/02:00am 24.3 21.4 10.9 43 7.6 ENE 17 28 9 15 1010.7 1008.7 0.0
17/01:30am 25.0 21.6 10.5 40 8.2 E 19 26 10 14 1011.1 1009.1 0.0
17/01:00am 26.0 23.3 10.2 37 8.9 ENE 15 20 8 11 1011.0 1009.0 0.0
17/12:30am 26.2 22.8 9.1 34 9.5 ENE 17 28 9 15 1011.3 1009.3 0.0
17/12:00am 26.5 24.2 8.9 33 9.8 E 11 15 6 8 1011.2 1009.2 0.0
 
Date/Time
EST
Temp
°C
App
Temp
°C
Dew
Point
°C
Rel
Hum
%
Delta-T
°C
Wind Press
QNH
hPa
Press
MSL
hPa
Rain since
9am
mm
Dir  Spd
km/h
Gust
km/h
Spd
kts
Gust
kts
16/11:30pm 27.1 25.1 8.5 31 10.3 E 9 13 5 7 1011.2 1009.2 0.0
16/11:00pm 27.8 26.3 8.6 30 10.7 E 6 9 3 5 1011.3 1009.3 0.0
16/10:30pm 27.7 26.2 9.0 31 10.4 E 7 11 4 6 1011.2 1009.2 0.0
16/10:00pm 28.0 25.8 9.3 31 10.5 E 11 17 6 9 1010.8 1008.8 0.0
16/09:30pm 28.7 25.6 8.9 29 11.1 E 15 20 8 11 1010.3 1008.2 0.0
16/09:00pm 29.7 26.2 8.7 27 11.8 ESE 17 24 9 13 1009.6 1007.5 0.0
16/08:30pm 30.0 27.4 6.0 22 12.9 SE 9 20 5 11 1009.0 1006.9 0.0
16/08:00pm 29.4 27.3 6.7 24 12.3 SE 7 9 4 5 1008.4 1006.4 0.0
16/07:30pm 30.1 27.9 7.9 25 12.3 SE 9 11 5 6 1007.9 1005.9 0.0
16/07:00pm 30.7 27.6 7.2 23 13.0 E 13 20 7 11 1007.4 1005.3 0.0
16/06:30pm 32.0 28.8 7.0 21 13.8 ESE 13 17 7 9 1006.9 1004.8 0.0
16/06:00pm 32.5 29.1 5.9 19 14.5 E 13 17 7 9 1006.6 1004.5 0.0
16/05:30pm 33.2 30.5 7.2 20 14.5 ESE 11 15 6 8 1006.5 1004.4 0.0
16/05:00pm 34.1 30.8 8.0 20 14.8 ENE 15 22 8 12 1006.5 1004.4 0.0
16/04:30pm 33.6 30.7 8.3 21 14.4 E 13 19 7 10 1006.7 1004.6 0.0
16/04:00pm 33.3 30.6 7.3 20 14.5 ENE 11 22 6 12 1006.8 1004.7 0.0
16/03:30pm 33.2 30.2 7.9 21 14.2 E 13 19 7 10 1007.2 1005.1 0.0
16/03:00pm 33.0 29.6 10.4 25 13.2 ENE 19 28 10 15 1007.6 1005.5 0.0
16/02:30pm 30.9 24.8 9.7 27 12.2 ESE 32 43 17 23 1008.0 1006.0 0.0
16/02:21pm 29.5 26.9 10.6 31 10.9 SSE 15 39 8 21 1008.2 1006.2 0.0
16/02:00pm 32.8 29.7 8.9 23 13.7 ENE 15 19 8 10 1008.3 1006.3 0.0
16/01:30pm 32.9 30.4 8.4 22 13.9 SE 11 22 6 12 1009.0 1006.9 0.0
16/01:00pm 32.4 29.6 9.9 25 13.0 S 15 30 8 16 1009.6 1007.5 0.0
16/12:30pm 32.2 28.7 10.3 26 12.7 NE 19 32 10 17 1010.1 1008.0 0.0
16/12:00pm 32.7 30.4 11.8 28 12.5 ENE 15 26 8 14 1010.6 1008.6 0.0
16/11:30am 31.5 29.2 11.8 30 11.7 E 15 28 8 15 1011.3 1009.3 0.0
16/11:00am 31.6 30.0 12.9 32 11.3 NE 13 24 7 13 1011.8 1009.7 0.0
16/10:30am 30.9 28.7 13.2 34 10.7 ENE 17 28 9 15 1012.2 1010.1 0.0
16/10:00am 29.7 28.2 14.3 39 9.4 E 15 26 8 14 1012.5 1010.4 0.0
16/09:30am 28.4 26.3 14.6 43 8.5 ENE 19 28 10 15 1012.7 1010.6 0.0
16/09:00am 27.7 25.6 14.7 45 8.0 NE 19 28 10 15 1012.6 1010.5 0.0
16/08:30am 26.7 25.5 15.1 49 7.1 ENE 15 19 8 10 1012.6 1010.5 0.0
16/08:00am 25.5 25.6 15.5 54 6.1 ENE 9 13 5 7 1012.3 1010.2 0.0
16/07:30am 24.1 24.6 16.6 63 4.7 ENE 9 13 5 7 1012.0 1009.9 0.0
16/07:00am 22.0 23.0 16.9 73 3.2 NE 7 9 4 5 1011.6 1009.5 0.0
16/06:30am 19.5 19.8 16.0 80 2.1 NE 9 11 5 6 1011.3 1009.3 0.0
16/06:00am 19.3 19.9 15.2 77 2.4 NNW 6 7 3 4 1011.1 1009.1 0.0
16/05:30am 20.2 20.7 15.6 75 2.8 NNW 7 9 4 5 1010.7 1008.7 0.0
16/05:00am 21.2 22.2 16.4 74 2.9 E 6 7 3 4 1010.7 1008.7 0.0
16/04:30am 21.2 21.6 16.4 74 2.9 ESE 9 13 5 7 1010.3 1008.2 0.0
16/04:00am 21.0 22.2 15.8 72 3.2 ESE 4 9 2 5 1010.0 1007.9 0.0
16/03:30am 21.8 22.4 15.4 67 3.9 E 6 7 3 4 1009.9 1007.8 0.0
16/03:00am 23.2 23.8 15.8 63 4.5 E 7 9 4 5 1009.7 1007.6 0.0
16/02:30am 24.0 23.3 16.3 62 4.8 ESE 15 20 8 11 1010.0 1007.9 0.0
16/02:00am 24.6 23.8 16.1 59 5.3 ESE 15 26 8 14 1010.3 1008.2 0.0
16/01:30am 25.0 23.4 15.9 57 5.6 ESE 19 30 10 16 1010.3 1008.2 0.0
16/01:00am 24.5 24.9 16.2 60 5.1 E 9 13 5 7 1010.3 1008.2 0.0
16/12:30am 25.2 25.0 16.6 59 5.4 ENE 13 17 7 9 1010.4 1008.3 0.0
16/12:00am 25.1 25.2 15.4 55 5.9 NE 9 13 5 7 1010.5 1008.5 0.0
 
Date/Time
EST
Temp
°C
App
Temp
°C
Dew
Point
°C
Rel
Hum
%
Delta-T
°C
Wind Press
QNH
hPa
Press
MSL
hPa
Rain since
9am
mm
Dir  Spd
km/h
Gust
km/h
Spd
kts
Gust
kts
15/11:30pm 26.1 25.2 15.8 53 6.4 NE 15 20 8 11 1010.3 1008.2 0.0
15/11:00pm 27.6 24.9 14.6 45 7.9 NE 22 30 12 16 1010.3 1008.2 0.0
15/10:30pm 30.6 26.3 7.1 23 12.9 SSE 19 28 10 15 1009.5 1007.4 0.0
15/10:00pm 30.4 26.5 7.0 23 12.8 S 17 22 9 12 1009.2 1007.1 0.0
15/09:30pm 31.1 27.2 6.9 22 13.3 S 17 24 9 13 1009.1 1007.0 0.0
15/09:00pm 31.2 28.0 7.0 22 13.3 SSE 13 19 7 10 1008.9 1006.8 0.0
15/08:30pm 31.7 28.1 6.7 21 13.7 SSE 15 19 8 10 1008.6 1006.5 0.0
15/08:00pm 32.1 28.6 7.0 21 13.9 S 15 19 8 10 1008.2 1006.2 0.0
15/07:30pm 32.3 28.8 7.2 21 13.9 SSE 15 19 8 10 1007.9 1005.9 0.0
15/07:00pm 32.4 28.8 6.6 20 14.2 S 15 20 8 11 1007.4 1005.3 0.0
15/06:30pm 33.2 29.9 6.5 19 14.7 S 13 17 7 9 1006.8 1004.7 0.0
15/06:00pm 34.1 29.3 5.6 17 15.6 S 20 28 11 15 1006.4 1004.3 0.0
15/05:30pm 33.9 29.4 7.0 19 15.0 S 20 26 11 14 1006.2 1004.1 0.0
15/05:00pm 34.4 29.8 6.7 18 15.4 SSW 20 26 11 14 1006.0 1003.9 0.0
15/04:30pm 34.2 30.0 7.3 19 15.1 S 19 30 10 16 1006.0 1003.9 0.0
15/04:00pm 34.5 32.6 6.7 18 15.5 SW 6 11 3 6 1006.1 1004.0 0.0
15/03:30pm 35.4 32.5 8.3 19 15.5 SE 13 30 7 16 1006.4 1004.3 0.0
15/03:00pm 34.1 31.0 8.7 21 14.6 SSE 15 26 8 14 1006.8 1004.7 0.0
15/02:30pm 33.1 31.8 9.8 24 13.5 WSW 7 13 4 7 1007.4 1005.3 0.0
15/02:00pm 33.4 31.4 10.1 24 13.6 S 11 22 6 12 1007.9 1005.9 0.0
15/01:30pm 33.5 31.1 11.4 26 13.2 S 15 22 8 12 1008.6 1006.5 0.0
15/01:00pm 33.3 31.0 11.8 27 12.9 E 15 26 8 14 1009.0 1006.9 0.0
15/12:30pm 33.6 31.2 11.5 26 13.2 SSE 15 24 8 13 1009.5 1007.4 0.0
15/12:00pm 33.4 31.1 11.9 27 12.9 ESE 15 28 8 15 1010.0 1007.9 0.0
15/11:30am 32.8 30.3 12.4 29 12.3 E 17 30 9 16 1010.6 1008.6 0.0
15/11:00am 31.9 28.9 12.7 31 11.6 E 20 30 11 16 1010.9 1008.9 0.0
15/10:30am 31.2 29.4 14.4 36 10.4 ESE 17 28 9 15 1011.4 1009.4 0.0

Other Formats:

Comma delimited format used in spreadsheet applications
http://www.bom.gov.au/fwo/IDQ60801/IDQ60801.94332.axf

JavaScript Object Notation format (JSON) in row-major order
http://www.bom.gov.au/fwo/IDQ60801/IDQ60801.94332.json